createdAt,value
2019-02-02T00:01:01.000Z,985.186
2019-02-02T00:11:01.000Z,985.139
2019-02-02T00:21:01.000Z,985.022
2019-02-02T00:31:01.000Z,984.922
2019-02-02T00:41:01.000Z,985.024
2019-02-02T00:51:01.000Z,985.008
2019-02-02T01:01:02.000Z,985.008
2019-02-02T01:11:02.000Z,985.059
2019-02-02T01:21:01.000Z,985.116
2019-02-02T01:31:01.000Z,985.099
2019-02-02T01:41:01.000Z,985.026
2019-02-02T01:51:01.000Z,985.132
2019-02-02T02:01:01.000Z,985.121
2019-02-02T02:11:01.000Z,985.075
2019-02-02T02:21:01.000Z,985.047
2019-02-02T02:31:01.000Z,984.951
2019-02-02T02:41:01.000Z,984.998
2019-02-02T02:51:01.000Z,985.118
2019-02-02T03:01:01.000Z,985.022
2019-02-02T03:11:01.000Z,985.01
2019-02-02T03:21:01.000Z,985.125
2019-02-02T03:31:01.000Z,985.148
2019-02-02T03:41:01.000Z,985.253
2019-02-02T03:51:01.000Z,985.275
2019-02-02T04:01:01.000Z,985.389
2019-02-02T04:11:01.000Z,985.321
2019-02-02T04:21:01.000Z,985.309
2019-02-02T04:31:01.000Z,985.276
2019-02-02T04:41:01.000Z,985.477
2019-02-02T04:51:01.000Z,985.692
2019-02-02T05:01:01.000Z,985.841
2019-02-02T05:11:01.000Z,985.963
2019-02-02T05:21:01.000Z,985.988
2019-02-02T05:31:01.000Z,986.178
2019-02-02T05:41:01.000Z,986.232
2019-02-02T05:51:01.000Z,986.311
2019-02-02T06:01:01.000Z,986.406
2019-02-02T06:11:01.000Z,986.56
2019-02-02T06:21:01.000Z,986.549
2019-02-02T06:31:01.000Z,986.555
2019-02-02T06:41:01.000Z,986.794
2019-02-02T06:51:01.000Z,986.915
2019-02-02T07:01:01.000Z,987.051
2019-02-02T07:11:01.000Z,987.193
2019-02-02T07:21:01.000Z,987.4
2019-02-02T07:31:05.000Z,987.506
2019-02-02T07:41:01.000Z,987.615
2019-02-02T07:51:01.000Z,987.629
2019-02-02T08:01:02.000Z,987.59
2019-02-02T08:11:02.000Z,987.72
2019-02-02T08:21:02.000Z,987.9
2019-02-02T08:31:02.000Z,987.93
2019-02-02T08:41:02.000Z,988.008
2019-02-02T08:51:02.000Z,988.094
2019-02-02T09:01:02.000Z,988.29
2019-02-02T09:11:02.000Z,988.3
2019-02-02T09:21:03.000Z,988.375
2019-02-02T09:31:02.000Z,988.433
2019-02-02T09:41:02.000Z,988.547
2019-02-02T09:51:02.000Z,988.686
2019-02-02T10:01:02.000Z,988.797
2019-02-02T10:11:02.000Z,988.83
2019-02-02T10:21:02.000Z,988.973
2019-02-02T10:31:02.000Z,989.21
2019-02-02T10:41:02.000Z,989.32
2019-02-02T10:51:02.000Z,989.425
2019-02-02T11:01:02.000Z,989.51
2019-02-02T11:11:02.000Z,989.634
2019-02-02T11:21:02.000Z,989.782
2019-02-02T11:31:02.000Z,989.833
2019-02-02T11:41:02.000Z,989.805
2019-02-02T11:51:02.000Z,990.081
2019-02-02T12:01:02.000Z,990.217
2019-02-02T12:11:02.000Z,990.3
2019-02-02T12:21:02.000Z,990.464
2019-02-02T12:31:02.000Z,990.675
2019-02-02T12:41:02.000Z,990.816
2019-02-02T12:51:02.000Z,990.848
2019-02-02T13:01:02.000Z,990.935
2019-02-02T13:11:03.000Z,991.026
2019-02-02T13:21:02.000Z,991.171
2019-02-02T13:31:02.000Z,991.265
2019-02-02T13:41:02.000Z,991.537
2019-02-02T13:51:02.000Z,991.718
2019-02-02T14:01:02.000Z,991.95
2019-02-02T14:11:02.000Z,992.112
2019-02-02T14:21:02.000Z,992.322
2019-02-02T14:31:02.000Z,992.323
2019-02-02T14:41:02.000Z,992.48
2019-02-02T14:51:02.000Z,992.688
2019-02-02T15:01:02.000Z,992.852
2019-02-02T15:11:02.000Z,993.03
2019-02-02T15:21:02.000Z,993.198
2019-02-02T15:31:02.000Z,993.272
2019-02-02T15:41:02.000Z,993.521
2019-02-02T15:51:04.000Z,993.697
2019-02-02T16:01:02.000Z,993.823
2019-02-02T16:11:03.000Z,994.081
2019-02-02T16:21:03.000Z,994.309
2019-02-02T16:31:03.000Z,994.513
2019-02-02T16:41:03.000Z,994.669
2019-02-02T16:51:03.000Z,994.888
2019-02-02T17:01:03.000Z,995.132
2019-02-02T17:11:03.000Z,995.406
2019-02-02T17:21:03.000Z,995.452
2019-02-02T17:31:03.000Z,995.586
2019-02-02T17:41:03.000Z,995.807
2019-02-02T17:51:03.000Z,996.127
2019-02-02T18:01:03.000Z,996.294
2019-02-02T18:11:04.000Z,996.499
2019-02-02T18:21:03.000Z,996.69
2019-02-02T18:31:03.000Z,996.822
2019-02-02T18:51:03.000Z,997.33
2019-02-02T19:01:03.000Z,997.461
2019-02-02T19:11:03.000Z,997.588
2019-02-02T19:21:03.000Z,997.894
2019-02-02T19:31:03.000Z,998.11
2019-02-02T19:41:03.000Z,998.211
2019-02-02T19:51:05.000Z,998.421
2019-02-02T20:01:03.000Z,998.623
2019-02-02T20:11:04.000Z,998.589
2019-02-02T20:21:03.000Z,998.78
2019-02-02T20:31:03.000Z,998.963
2019-02-02T20:41:03.000Z,999.164
2019-02-02T20:51:03.000Z,999.249
2019-02-02T21:11:03.000Z,999.548
2019-02-02T21:21:03.000Z,999.782
2019-02-02T21:41:03.000Z,1000.128
2019-02-02T21:51:03.000Z,1000.286
2019-02-02T22:01:03.000Z,1000.596
2019-02-02T22:11:03.000Z,1000.838
2019-02-02T22:21:03.000Z,1001.075
2019-02-02T22:31:07.000Z,1001.321
2019-02-02T22:41:03.000Z,1001.48
2019-02-02T22:51:03.000Z,1001.718
2019-02-02T23:01:03.000Z,1001.715
2019-02-02T23:11:03.000Z,1001.93
2019-02-02T23:21:03.000Z,1002.157
2019-02-02T23:31:03.000Z,1002.367
2019-02-02T23:41:03.000Z,1002.46
2019-02-02T23:51:03.000Z,1002.526
